RJCM

Details ICAO RJCM (MMB)
Name MEMANBETSU
Region Japan
Timezone Asia/Tokyo (UTC+9.0)
Plans Departing 15
Arriving 21
Stats Elevation 135 ft / 41 m (AMSL)
Location 43.880606° 144.164053°
Runways 1
Magnetic Variation 9.205° W
Sunrise 2017-12-17 21:53:53 UTC / 2017-12-18 06:53:53 Local
Sunset 2017-12-18 06:48:21 UTC / 2017-12-18 15:48:21 Local
Advertisement - Login to hide

Runways

ID Width Length Bearing (true) Bearing (mag) Surface Threshold Offset Overrun Length
18 150 ft / 46 m 8,211 ft / 2,503 m 174.68° 183.89° Asphalt 0 ft / 0 m 197 ft / 60 m
36 150 ft / 46 m 8,211 ft / 2,503 m 354.68° 3.89° Asphalt 0 ft / 0 m 197 ft / 60 m

Approach Navaids

Runway Type Ident Frequency Range Bearing (true) Bearing (mag) Slope Elevation
18 Localiser ITB 110.10 MHz 18 nm / 33 km 174.68° 183.89° - 132 ft / 40 m (AMSL)
18 Glidescope ITB 110.10 MHz 10 nm / 19 km 174.68° 183.89° 3.00° 135 ft / 41 m (AMSL)

Map

Weather


0- 5 10 15 20 25 30 35+ Temperature / ° C

Clouds and Precipitation
Forecast for 2017-12-17 18:00 UTC. Updated an hour ago

Ground ~20,000 ft ~40,000 ft Winds

METAR

Not found

TAF

TAF RJCM 171715Z 1718/1900 21005KT 9999 FEW030 SCT040

Frequencies

Tower 126.20 MHz TWR
Tower 118.85 MHz TWR
Warning: Do not use this data for real-world aviation or navigation. No guarantee of current accuracy is given.